Time;durP1;ratioP1;P1;durP2;ratioP2;P2;SDS_P1;SDS_P2;PMS_P1;PMS_P2;Temp;Humidity;BMP_temperature;BMP_pressure;BME280_temperature;BME280_humidity;BME280_pressure;Samples;Min_cycle;Max_cycle;Signal;HPM_P1;HPM_P2
2022/10/06 00:00:37;;;;;;;2.47;1.40;;;12.90;99.90;;;;;;5115194;28;20047;-91
2022/10/06 00:03:03;;;;;;;4.68;1.48;;;;;;;;;;5098107;28;20047;-88
2022/10/06 00:05:29;;;;;;;11.95;3.13;;;;;;;;;;5115154;28;20411;-88
2022/10/06 00:07:55;;;;;;;3.95;1.60;;;;;;;;;;5097726;28;20097;-91
2022/10/06 00:10:21;;;;;;;12.95;2.00;;;;;;;;;;5114438;28;20035;-87
2022/10/06 00:12:49;;;;;;;9.73;2.33;;;12.90;99.90;;;;;;5096244;28;20048;-85
2022/10/06 00:15:18;;;;;;;10.45;2.15;;;13.10;99.90;;;;;;5098276;28;20079;-86
2022/10/06 00:17:44;;;;;;;7.18;2.05;;;13.10;99.90;;;;;;5114343;28;20040;-85
2022/10/06 00:20:10;;;;;;;9.20;1.70;;;;;;;;;;5099156;28;20050;-83
2022/10/06 00:22:41;;;;;;;10.63;2.50;;;13.10;99.90;;;;;;5097384;28;20047;-87
2022/10/06 00:25:08;;;;;;;8.10;2.30;;;12.90;99.90;;;;;;5115789;28;20036;-88
2022/10/06 00:27:35;;;;;;;11.13;2.28;;;13.10;99.90;;;;;;5100937;28;20069;-86
2022/10/06 00:30:03;;;;;;;10.70;2.08;;;13.10;99.90;;;;;;5100908;28;20111;-86
2022/10/06 00:32:29;;;;;;;6.63;2.58;;;;;;;;;;5100674;28;20515;-85
2022/10/06 00:34:57;;;;;;;11.50;2.65;;;;;;;;;;5117126;28;20100;-88
2022/10/06 00:37:23;;;;;;;8.60;2.42;;;;;;;;;;5115052;28;20067;-83
2022/10/06 00:39:49;;;;;;;10.75;2.10;;;;;;;;;;5114012;28;20069;-83
2022/10/06 00:42:21;;;;;;;7.75;2.00;;;;;;;;;;5114587;28;20460;-87
2022/10/06 00:44:48;;;;;;;12.48;2.05;;;;;;;;;;5098383;28;20130;-84
2022/10/06 00:47:14;;;;;;;11.15;2.60;;;;;;;;;;5114528;28;20046;-83
2022/10/06 00:49:41;;;;;;;7.55;2.33;;;;;;;;;;5113816;28;20130;-83
2022/10/06 00:52:09;;;;;;;11.25;2.47;;;;;;;;;;5113306;28;20044;-83
2022/10/06 00:54:35;;;;;;;8.68;1.98;;;;;;;;;;5113904;28;20088;-83
2022/10/06 00:57:03;;;;;;;10.75;2.00;;;13.00;99.90;;;;;;5113227;28;20117;-81
2022/10/06 00:59:29;;;;;;;9.60;2.20;;;;;;;;;;5113387;28;20090;-82
2022/10/06 01:02:10;;;;;;;8.00;2.50;;;13.00;99.90;;;;;;5113355;28;20116;-82
2022/10/06 01:04:39;;;;;;;6.72;1.83;;;13.00;99.90;;;;;;5113280;28;20044;-82
2022/10/06 01:07:06;;;;;;;8.00;2.35;;;12.80;99.90;;;;;;5113231;28;20046;-82
2022/10/06 01:09:32;;;;;;;6.07;1.95;;;;;;;;;;5112957;28;20042;-81
2022/10/06 01:12:03;;;;;;;4.75;1.75;;;12.60;99.90;;;;;;5112727;28;20043;-81
2022/10/06 01:14:29;;;;;;;9.82;2.67;;;12.80;99.90;;;;;;5112845;28;20043;-82
2022/10/06 01:17:20;;;;;;;12.38;2.60;;;12.80;99.90;;;;;;5112965;28;20046;-82
2022/10/06 01:20:06;;;;;;;4.95;2.00;;;13.10;99.90;;;;;;5112970;28;20077;-83
2022/10/06 01:22:37;;;;;;;6.30;1.85;;;12.90;99.90;;;;;;5095476;28;20055;-82
2022/10/06 01:25:05;;;;;;;7.93;2.35;;;12.90;99.90;;;;;;5095980;28;20043;-82
2022/10/06 01:27:32;;;;;;;12.85;2.38;;;12.90;99.90;;;;;;5095645;28;20556;-82
2022/10/06 01:29:59;;;;;;;8.23;2.55;;;12.70;99.90;;;;;;5112980;28;20062;-82
2022/10/06 01:32:30;;;;;;;16.58;3.08;;;12.80;99.90;;;;;;5113073;28;20051;-90
2022/10/06 01:34:57;;;;;;;5.15;1.83;;;;;;;;;;5096338;28;20048;-87
2022/10/06 01:37:23;;;;;;;12.90;2.15;;;;;;;;;;5096327;28;20142;-89
2022/10/06 01:39:49;;;;;;;10.50;2.47;;;;;;;;;;5112977;28;20547;-85
2022/10/06 01:42:15;;;;;;;14.50;2.33;;;;;;;;;;5095854;28;20524;-86
2022/10/06 01:44:41;;;;;;;7.63;2.17;;;12.60;99.90;;;;;;5113087;28;20040;-87
2022/10/06 01:47:07;;;;;;;9.20;2.00;;;;;;;;;;5113136;28;20043;-85
2022/10/06 01:49:33;;;;;;;12.35;2.50;;;;;;;;;;5112836;28;20048;-88
2022/10/06 01:51:59;;;;;;;11.98;2.38;;;12.70;99.90;;;;;;5112648;28;20075;-87
2022/10/06 01:54:25;;;;;;;12.20;3.50;;;;;;;;;;5112988;28;20044;-88
2022/10/06 01:56:52;;;;;;;12.05;2.70;;;;;;;;;;5113044;28;20070;-88
2022/10/06 01:59:18;;;;;;;5.78;2.35;;;;;;;;;;5113144;28;20044;-89
2022/10/06 02:01:44;;;;;;;8.25;3.05;;;12.50;99.90;;;;;;5113215;28;20048;-92
2022/10/06 02:04:10;;;;;;;4.32;1.60;;;;;;;;;;5095971;28;20593;-87
2022/10/06 02:06:35;;;;;;;17.10;2.40;;;12.30;99.90;;;;;;5113054;28;20043;-88
2022/10/06 02:09:01;;;;;;;5.05;1.80;;;;;;;;;;5095332;28;20499;-82
2022/10/06 02:11:27;;;;;;;11.25;2.55;;;12.60;99.90;;;;;;5111985;28;20089;-81
2022/10/06 02:13:53;;;;;;;10.80;2.97;;;;;;;;;;5112208;28;20051;-81
2022/10/06 02:16:19;;;;;;;9.05;3.15;;;;;;;;;;5112211;28;20126;-82
2022/10/06 02:18:45;;;;;;;11.00;2.10;;;12.50;99.90;;;;;;5112086;28;20090;-81
2022/10/06 02:21:20;;;;;;;10.52;2.40;;;12.40;99.90;;;;;;5112415;28;20089;-81
2022/10/06 02:23:47;;;;;;;14.43;2.30;;;;;;;;;;5095108;28;20051;-81
2022/10/06 02:26:16;;;;;;;13.77;2.78;;;12.70;99.90;;;;;;5095444;28;20464;-83
2022/10/06 02:28:43;;;;;;;6.93;1.52;;;;;;;;;;5112042;28;20051;-82
2022/10/06 02:31:10;;;;;;;7.75;2.60;;;12.40;99.90;;;;;;5095297;28;20039;-82
2022/10/06 02:33:36;;;;;;;8.10;2.25;;;12.40;99.90;;;;;;5111954;28;20139;-82
2022/10/06 02:36:03;;;;;;;12.18;2.45;;;;;;;;;;5114710;28;20047;-82
2022/10/06 02:38:30;;;;;;;13.52;2.67;;;;;;;;;;5098772;28;20036;-82
2022/10/06 02:40:57;;;;;;;8.70;1.85;;;12.50;99.90;;;;;;5098917;28;20047;-82
2022/10/06 02:43:23;;;;;;;8.00;2.42;;;;;;;;;;5098840;28;20067;-82
2022/10/06 02:46:00;;;;;;;3.97;1.88;;;12.40;99.90;;;;;;5115914;28;20511;-82
2022/10/06 02:48:26;;;;;;;5.55;2.30;;;12.50;99.90;;;;;;5098813;28;20407;-83
2022/10/06 02:51:00;;;;;;;11.07;2.47;;;12.50;99.90;;;;;;5116282;28;20043;-88
2022/10/06 02:53:26;;;;;;;11.30;2.63;;;;;;;;;;5115915;28;20047;-88
2022/10/06 02:56:04;;;;;;;11.60;2.15;;;12.30;99.90;;;;;;5098921;28;20035;-91
2022/10/06 02:58:30;;;;;;;10.18;2.53;;;;;;;;;;5099068;28;20090;-86
2022/10/06 03:01:26;;;;;;;11.90;2.17;;;12.30;99.90;;;;;;5099184;28;20404;-87
2022/10/06 03:03:52;;;;;;;7.13;2.55;;;12.50;99.90;;;;;;5057745;28;20055;-85
2022/10/06 03:06:21;;;;;;;8.20;2.33;;;;;;;;;;5040833;28;20424;-89
2022/10/06 03:08:49;;;;;;;14.57;2.63;;;12.20;99.90;;;;;;5057670;28;20132;-90
2022/10/06 03:11:15;;;;;;;16.08;2.42;;;;;;;;;;5057388;28;20044;-91
2022/10/06 03:13:41;;;;;;;11.60;1.92;;;;;;;;;;5074025;28;20060;-90
2022/10/06 03:16:41;;;;;;;10.65;2.22;;;12.30;99.90;;;;;;5057367;28;20144;-90
2022/10/06 03:19:09;;;;;;;16.55;2.92;;;12.30;99.90;;;;;;5056958;28;20047;-88
2022/10/06 03:21:37;;;;;;;12.48;2.45;;;12.20;99.90;;;;;;5040527;28;20404;-87
2022/10/06 03:24:03;;;;;;;14.00;2.92;;;12.50;99.90;;;;;;5056806;28;20056;-91
2022/10/06 03:26:37;;;;;;;8.18;2.28;;;12.40;99.90;;;;;;5040296;28;20080;-82
2022/10/06 03:29:04;;;;;;;5.20;1.80;;;12.50;99.90;;;;;;5056983;28;20466;-81
2022/10/06 03:31:30;;;;;;;21.75;3.50;;;11.90;99.90;;;;;;5039832;28;20036;-82
2022/10/06 03:33:56;;;;;;;9.48;2.78;;;;;;;;;;5039857;28;20131;-82
2022/10/06 03:36:24;;;;;;;11.02;3.33;;;12.40;99.90;;;;;;5039861;28;20048;-83
2022/10/06 03:38:50;;;;;;;12.48;2.85;;;12.10;99.90;;;;;;5039831;28;20048;-83
2022/10/06 03:41:22;;;;;;;9.20;2.50;;;12.30;99.90;;;;;;5094390;28;20451;-83
2022/10/06 03:43:49;;;;;;;10.65;2.17;;;12.30;99.90;;;;;;5115552;28;20421;-83
2022/10/06 03:46:17;;;;;;;7.57;2.25;;;12.20;99.90;;;;;;5097298;28;20096;-83
2022/10/06 03:48:43;;;;;;;8.00;2.63;;;;;;;;;;5114443;28;20050;-83
2022/10/06 03:51:09;;;;;;;6.90;3.30;;;;;;;;;;5114318;28;20092;-83
2022/10/06 03:53:35;;;;;;;14.63;2.33;;;;;;;;;;5114343;28;20069;-83
2022/10/06 03:56:13;;;;;;;7.82;2.05;;;12.30;99.90;;;;;;5114488;28;20549;-83
2022/10/06 03:58:41;;;;;;;11.38;2.42;;;12.40;99.90;;;;;;5114315;28;20059;-84
2022/10/06 04:01:12;;;;;;;10.50;2.63;;;12.20;99.90;;;;;;5114671;28;20395;-84
2022/10/06 04:03:39;;;;;;;8.57;2.03;;;;;;;;;;5097429;28;20047;-92
2022/10/06 04:06:06;;;;;;;12.32;2.75;;;12.30;99.90;;;;;;5114871;28;20052;-82
2022/10/06 04:08:33;;;;;;;16.73;3.00;;;12.20;99.90;;;;;;5097379;28;20101;-88
2022/10/06 04:11:06;;;;;;;9.32;2.30;;;;;;;;;;5097164;28;20043;-88
2022/10/06 04:13:32;;;;;;;9.20;2.30;;;;;;;;;;5097063;28;20054;-83
2022/10/06 04:15:58;;;;;;;6.20;2.35;;;;;;;;;;5114290;28;20490;-87
2022/10/06 04:18:24;;;;;;;13.70;2.50;;;12.20;99.90;;;;;;5113947;28;20104;-86
2022/10/06 04:20:50;;;;;;;5.03;1.60;;;;;;;;;;5096961;28;20044;-89
2022/10/06 04:23:16;;;;;;;12.95;2.67;;;;;;;;;;5096862;28;20054;-84
2022/10/06 04:25:42;;;;;;;9.23;2.22;;;;;;;;;;5113817;28;20497;-88
2022/10/06 04:28:08;;;;;;;9.18;2.15;;;;;;;;;;5113732;28;20127;-88
2022/10/06 04:30:34;;;;;;;6.53;2.22;;;;;;;;;;5113838;28;20499;-88
2022/10/06 04:33:00;;;;;;;12.38;2.45;;;12.10;99.90;;;;;;5113348;28;20071;-87
2022/10/06 04:35:26;;;;;;;13.88;3.00;;;;;;;;;;5096532;28;20040;-90
2022/10/06 04:37:54;;;;;;;5.25;1.80;;;;;;;;;;5113742;28;20067;-88
2022/10/06 04:40:20;;;;;;;10.45;1.90;;;12.10;99.90;;;;;;5113429;28;20047;-88
2022/10/06 04:42:46;;;;;;;12.65;2.75;;;;;;;;;;5096468;28;20051;-88
2022/10/06 04:45:12;;;;;;;10.38;2.60;;;;;;;;;;5113428;28;20051;-87
2022/10/06 04:47:39;;;;;;;8.63;2.35;;;;;;;;;;5113634;28;20563;-90
2022/10/06 04:50:05;;;;;;;10.90;2.10;;;;;;;;;;5097395;28;20058;-90
2022/10/06 04:52:31;;;;;;;7.28;2.10;;;;;;;;;;5096758;28;20093;-89
2022/10/06 04:54:56;;;;;;;9.43;2.65;;;11.90;99.90;;;;;;5113259;28;20036;-84
2022/10/06 04:57:22;;;;;;;9.93;2.38;;;;;;;;;;5095799;28;20117;-85
2022/10/06 05:02:33;;;;;;;11.55;3.03;;;12.10;99.90;;;;;;5112912;28;20066;-82
2022/10/06 05:04:58;;;;;;;10.40;2.55;;;12.00;99.90;;;;;;5096540;28;20039;-83
2022/10/06 05:07:24;;;;;;;13.80;4.13;;;;;;;;;;5112792;28;20049;-83
2022/10/06 05:09:51;;;;;;;7.90;2.13;;;;;;;;;;5096222;28;20054;-83
2022/10/06 05:12:17;;;;;;;11.02;2.50;;;;;;;;;;5112607;28;20039;-81
2022/10/06 05:14:45;;;;;;;19.23;2.50;;;;;;;;;;5113150;28;20400;-82
2022/10/06 05:17:11;;;;;;;13.32;2.53;;;;;;;;;;5096067;28;20035;-83
2022/10/06 05:19:37;;;;;;;9.88;2.47;;;;;;;;;;5095915;28;20126;-80
2022/10/06 05:22:03;;;;;;;7.70;2.35;;;;;;;;;;5097145;28;20031;-83
2022/10/06 05:24:29;;;;;;;8.85;2.67;;;;;;;;;;5113383;28;20047;-80
2022/10/06 05:26:55;;;;;;;12.93;2.30;;;;;;;;;;5113285;28;20055;-81
2022/10/06 05:29:21;;;;;;;8.57;2.88;;;;;;;;;;5113044;28;20039;-82
2022/10/06 05:31:48;;;;;;;7.72;2.05;;;;;;;;;;5096256;28;20040;-81
2022/10/06 05:34:14;;;;;;;14.10;3.08;;;;;;;;;;5114753;28;20074;-82
2022/10/06 05:36:40;;;;;;;8.40;2.58;;;;;;;;;;5116523;28;20407;-81
2022/10/06 05:39:06;;;;;;;10.68;2.85;;;;;;;;;;5098812;28;20043;-82
2022/10/06 05:41:33;;;;;;;10.45;2.20;;;11.80;99.90;;;;;;5113132;28;20044;-80
2022/10/06 05:43:59;;;;;;;10.90;2.60;;;;;;;;;;5112818;28;20050;-80
2022/10/06 05:46:27;;;;;;;9.75;3.20;;;;;;;;;;5113854;28;20123;-82
2022/10/06 05:48:55;;;;;;;9.70;2.78;;;11.70;99.90;;;;;;5112887;28;20048;-81
2022/10/06 05:51:24;;;;;;;16.17;3.10;;;11.60;99.90;;;;;;5113064;28;20400;-81
2022/10/06 05:53:50;;;;;;;7.97;2.65;;;;;;;;;;5113659;28;20051;-85
2022/10/06 05:56:16;;;;;;;8.75;2.75;;;;;;;;;;5097063;28;20050;-86
2022/10/06 05:58:43;;;;;;;10.15;2.50;;;;;;;;;;5096489;28;20136;-88
2022/10/06 06:01:22;;;;;;;10.13;2.35;;;11.50;99.90;;;;;;5114989;28;20048;-88
2022/10/06 06:03:59;;;;;;;12.55;3.35;;;;;;;;;;5114194;28;20051;-82
2022/10/06 06:06:45;;;;;;;13.82;2.60;;;11.50;99.90;;;;;;5096213;28;20123;-87
2022/10/06 06:09:16;;;;;;;17.85;2.85;;;11.50;99.90;;;;;;5097361;28;20040;-85
2022/10/06 06:11:44;;;;;;;8.55;2.83;;;11.50;99.90;;;;;;5099904;28;20073;-85
2022/10/06 06:14:13;;;;;;;6.60;2.53;;;11.40;99.90;;;;;;5116893;28;20055;-84
2022/10/06 06:16:40;;;;;;;15.40;2.38;;;11.60;99.90;;;;;;5100324;28;20036;-87
2022/10/06 06:19:07;;;;;;;9.18;4.00;;;11.50;99.90;;;;;;5099877;28;20085;-85
2022/10/06 06:21:33;;;;;;;10.68;2.60;;;;;;;;;;5117065;28;20504;-87
2022/10/06 06:23:59;;;;;;;9.80;2.28;;;;;;;;;;5100029;28;20092;-85
2022/10/06 06:26:27;;;;;;;8.95;2.50;;;11.50;99.90;;;;;;5100163;28;20487;-84
2022/10/06 06:28:55;;;;;;;13.15;2.42;;;11.20;99.90;;;;;;5100044;28;20450;-90
2022/10/06 06:31:26;;;;;;;9.73;2.50;;;11.40;99.90;;;;;;5099644;28;20040;-85
2022/10/06 06:33:55;;;;;;;16.13;2.90;;;11.50;99.90;;;;;;5099297;28;20052;-88
2022/10/06 06:36:24;;;;;;;5.53;2.50;;;;;;;;;;5099691;28;20042;-87
2022/10/06 06:38:54;;;;;;;10.45;2.25;;;11.50;99.90;;;;;;5099988;28;20048;-90
2022/10/06 06:41:27;;;;;;;7.13;2.15;;;11.80;99.90;;;;;;5098902;28;20127;-82
2022/10/06 06:43:53;;;;;;;7.37;2.50;;;;;;;;;;5096799;28;20062;-81
2022/10/06 06:46:23;;;;;;;6.20;1.98;;;11.60;99.90;;;;;;5116333;28;20293;-82
2022/10/06 06:48:50;;;;;;;10.65;2.10;;;;;;;;;;5117084;28;20043;-82
2022/10/06 06:51:16;;;;;;;12.40;2.70;;;11.50;99.90;;;;;;5098848;28;20047;-82
2022/10/06 06:53:42;;;;;;;17.60;2.88;;;;;;;;;;5098377;28;20043;-82
2022/10/06 06:56:08;;;;;;;14.10;2.45;;;11.60;99.90;;;;;;5115586;28;20158;-82
2022/10/06 06:58:34;;;;;;;12.20;2.95;;;;;;;;;;5115469;28;20050;-82
2022/10/06 07:01:05;;;;;;;8.68;2.42;;;;;;;;;;5116013;28;20470;-82
2022/10/06 07:03:31;;;;;;;12.45;3.28;;;;;;;;;;5099498;28;20046;-83
2022/10/06 07:06:08;;;;;;;10.93;2.90;;;12.10;99.90;;;;;;5098302;28;20039;-82
2022/10/06 07:08:43;;;;;;;13.50;2.72;;;11.90;99.90;;;;;;5115362;28;20048;-83
2022/10/06 07:11:29;;;;;;;12.27;3.33;;;12.20;99.90;;;;;;5098462;28;20475;-82
2022/10/06 07:13:59;;;;;;;11.18;3.05;;;11.90;99.90;;;;;;5115147;28;20078;-82
2022/10/06 07:27:36;;;;;;;8.82;2.35;;;12.30;99.90;;;;;;5114831;28;20054;-83
2022/10/06 07:30:03;;;;;;;13.68;2.92;;;;;;;;;;5097756;28;20039;-82
2022/10/06 07:32:32;;;;;;;11.70;2.67;;;;;;;;;;5114706;28;20454;-82
2022/10/06 07:34:58;;;;;;;13.57;2.65;;;;;;;;;;5114730;28;20059;-83
2022/10/06 07:37:24;;;;;;;12.45;3.13;;;;;;;;;;5098111;28;20499;-82
2022/10/06 07:39:50;;;;;;;13.20;2.08;;;;;;;;;;5115601;28;20040;-82
2022/10/06 07:42:17;;;;;;;7.00;2.17;;;12.60;99.90;;;;;;5097408;28;20056;-82
2022/10/06 07:45:36;;;;;;;8.32;2.47;;;12.70;99.90;;;;;;5115265;28;20039;-82
2022/10/06 07:47:33;;;;;;;9.90;1.98;;;12.70;99.90;;;;;;5114656;28;20059;-82
2022/10/06 07:50:00;;;;;;;16.23;3.75;;;;;;;;;;5097868;28;20501;-82
2022/10/06 07:52:27;;;;;;;6.95;2.35;;;;;;;;;;5114983;28;20040;-83
2022/10/06 07:54:57;;;;;;;9.40;2.38;;;;;;;;;;5097573;28;20167;-84
2022/10/06 07:57:25;;;;;;;12.77;2.53;;;;;;;;;;5097558;28;20028;-81
2022/10/06 07:59:51;;;;;;;14.20;2.65;;;;;;;;;;5097230;28;20050;-83
2022/10/06 08:02:18;;;;;;;7.95;2.50;;;12.70;99.90;;;;;;5114148;28;20409;-82
2022/10/06 08:04:45;;;;;;;10.73;2.28;;;;;;;;;;5114082;28;20506;-81
2022/10/06 08:07:11;;;;;;;11.98;2.38;;;13.00;99.90;;;;;;5114069;28;20043;-84
2022/10/06 08:09:37;;;;;;;10.80;2.75;;;;;;;;;;5114004;28;20035;-82
2022/10/06 08:12:31;;;;;;;11.85;2.63;;;;;;;;;;5096981;28;20438;-83
2022/10/06 08:14:49;;;;;;;12.02;3.00;;;13.30;99.90;;;;;;5114821;28;20490;-83
2022/10/06 08:17:15;;;;;;;15.32;2.60;;;13.30;99.90;;;;;;5113814;28;20130;-82
2022/10/06 08:19:41;;;;;;;13.52;2.53;;;;;;;;;;5097304;28;20119;-82
2022/10/06 08:22:07;;;;;;;6.18;2.50;;;13.30;99.90;;;;;;5113850;28;20082;-82
2022/10/06 08:24:33;;;;;;;9.07;2.58;;;;;;;;;;5113660;28;20084;-82
2022/10/06 08:26:59;;;;;;;13.85;3.88;;;;;;;;;;5113708;28;20052;-83
2022/10/06 08:29:25;;;;;;;12.85;2.55;;;;;;;;;;5096751;28;20043;-82
2022/10/06 08:31:51;;;;;;;13.20;2.83;;;;;;;;;;5113471;28;20047;-82
2022/10/06 08:34:17;;;;;;;6.55;2.00;;;;;;;;;;5096283;28;20066;-81
2022/10/06 08:36:43;;;;;;;13.80;2.35;;;;;;;;;;5096992;28;20479;-82
2022/10/06 08:39:09;;;;;;;11.68;3.13;;;;;;;;;;5113652;28;20040;-83
2022/10/06 08:41:43;;;;;;;12.65;2.70;;;13.70;99.90;;;;;;5113641;28;20104;-81
2022/10/06 08:44:17;;;;;;;15.20;2.50;;;13.80;99.90;;;;;;5096285;28;20050;-83
2022/10/06 08:46:59;;;;;;;6.38;2.00;;;13.80;99.90;;;;;;5096704;28;20097;-81
2022/10/06 08:49:27;;;;;;;19.75;3.17;;;13.90;99.90;;;;;;5096426;28;20491;-83
2022/10/06 08:52:22;;;;;;;8.25;2.05;;;14.00;99.90;;;;;;5095917;28;20491;-83
2022/10/06 08:55:13;;;;;;;5.60;1.92;;;14.10;99.90;;;;;;5096951;28;20095;-81
2022/10/06 08:57:46;;;;;;;3.97;2.17;;;13.90;99.90;;;;;;5096351;28;20051;-82
2022/10/06 09:00:14;;;;;;;10.20;3.25;;;14.20;99.90;;;;;;5097463;28;20454;-83
2022/10/06 09:02:46;;;;;;;13.88;2.15;;;14.40;99.90;;;;;;5096609;28;20075;-83
2022/10/06 09:05:22;;;;;;;5.55;2.28;;;14.30;99.90;;;;;;5113028;28;20122;-82
2022/10/06 09:07:55;;;;;;;12.48;2.65;;;14.10;99.90;;;;;;5113186;28;20043;-82
2022/10/06 09:10:42;;;;;;;7.15;2.17;;;14.20;99.90;;;;;;5096196;28;20086;-82
2022/10/06 09:13:20;;;;;;;9.75;2.90;;;14.30;99.90;;;;;;5095685;28;20050;-82
2022/10/06 09:15:49;;;;;;;5.63;1.70;;;;;;;;;;5113075;28;20078;-83
2022/10/06 09:18:21;;;;;;;7.82;2.25;;;14.40;99.90;;;;;;5096332;28;20048;-82
2022/10/06 09:21:05;;;;;;;10.32;2.22;;;14.40;99.90;;;;;;5113290;28;20048;-83
2022/10/06 09:23:47;;;;;;;5.05;1.98;;;;;;;;;;5112792;28;20048;-82
2022/10/06 09:26:27;;;;;;;8.63;2.05;;;14.30;99.90;;;;;;5112728;28;20043;-82
2022/10/06 09:28:54;;;;;;;10.50;2.30;;;14.50;99.90;;;;;;5112900;28;20039;-81
2022/10/06 09:31:26;;;;;;;10.65;1.95;;;;;;;;;;5112551;28;20095;-83
2022/10/06 09:33:57;;;;;;;15.60;1.90;;;14.40;99.90;;;;;;5112264;28;20069;-82
2022/10/06 09:36:23;;;;;;;5.85;2.30;;;;;;;;;;5095627;28;20047;-82
2022/10/06 09:38:55;;;;;;;7.40;2.47;;;;;;;;;;5095618;28;20039;-82
2022/10/06 09:41:24;;;;;;;4.78;2.10;;;;;;;;;;5113717;28;20043;-82
2022/10/06 09:44:00;;;;;;;5.70;1.98;;;14.40;99.90;;;;;;5095800;28;20437;-82
2022/10/06 09:46:30;;;;;;;10.18;2.00;;;14.50;99.90;;;;;;5112423;28;20043;-81
2022/10/06 09:49:17;;;;;;;11.90;2.40;;;14.70;99.90;;;;;;5112911;28;20110;-81
2022/10/06 09:52:11;;;;;;;6.63;1.58;;;14.80;99.90;;;;;;5095352;28;20101;-82
2022/10/06 09:54:40;;;;;;;10.18;1.98;;;;;;;;;;5110917;28;20120;-81
2022/10/06 09:57:13;;;;;;;9.80;2.30;;;15.00;99.90;;;;;;5112427;28;20047;-82
2022/10/06 09:59:46;;;;;;;10.70;2.40;;;15.20;99.90;;;;;;5095738;28;20071;-83
2022/10/06 10:02:30;;;;;;;6.05;1.55;;;14.70;99.90;;;;;;5112575;28;20332;-84
2022/10/06 10:04:56;;;;;;;5.85;2.30;;;15.20;99.90;;;;;;5095370;28;20044;-82
2022/10/06 10:07:25;;;;;;;7.88;1.80;;;15.20;99.90;;;;;;5095253;28;20122;-82
2022/10/06 10:09:52;;;;;;;9.18;2.42;;;15.30;99.90;;;;;;5112592;28;20090;-82
2022/10/06 10:12:23;;;;;;;6.82;1.90;;;15.50;99.90;;;;;;5095047;28;20044;-84
2022/10/06 10:14:50;;;;;;;10.32;1.83;;;15.50;99.90;;;;;;5095288;28;20492;-81
2022/10/06 10:17:23;;;;;;;13.27;2.15;;;15.40;99.90;;;;;;5095670;28;20484;-83
2022/10/06 10:19:53;;;;;;;5.95;2.00;;;15.40;99.90;;;;;;5095521;28;20051;-81
2022/10/06 10:22:23;;;;;;;13.80;2.03;;;15.40;99.90;;;;;;5112299;28;20571;-83
2022/10/06 10:25:23;;;;;;;7.53;2.17;;;15.60;99.90;;;;;;5112187;28;20044;-82
2022/10/06 10:28:07;;;;;;;7.38;1.83;;;15.40;99.90;;;;;;5095485;28;20130;-81
2022/10/06 10:30:51;;;;;;;8.13;1.65;;;15.40;99.90;;;;;;5096623;28;20052;-81
2022/10/06 10:33:40;;;;;;;2.65;1.38;;;15.30;99.90;;;;;;5092154;28;20052;-82
2022/10/06 10:36:09;;;;;;;4.55;1.23;;;15.40;99.90;;;;;;5115676;28;20553;-89
2022/10/06 10:38:41;;;;;;;5.13;1.90;;;15.50;99.90;;;;;;5097976;28;20044;-83
2022/10/06 10:41:23;;;;;;;4.35;1.45;;;15.50;99.90;;;;;;5113919;28;20126;-86
2022/10/06 10:43:58;;;;;;;8.18;2.42;;;15.70;99.90;;;;;;5095847;28;20040;-88
2022/10/06 10:46:37;;;;;;;9.55;1.95;;;15.60;99.90;;;;;;5112827;28;20499;-90
2022/10/06 10:49:19;;;;;;;8.93;1.80;;;15.30;99.90;;;;;;5095507;28;20035;-89
2022/10/06 10:52:10;;;;;;;15.43;2.15;;;15.50;99.90;;;;;;5112537;28;20051;-89
2022/10/06 10:54:47;;;;;;;5.63;1.90;;;15.60;99.90;;;;;;5112425;28;20059;-87
2022/10/06 10:57:16;;;;;;;6.82;2.50;;;15.80;99.90;;;;;;5115307;28;20069;-89
2022/10/06 11:00:06;;;;;;;3.60;1.40;;;15.90;99.90;;;;;;5098955;28;20050;-84
2022/10/06 11:02:34;;;;;;;9.55;2.03;;;;;;;;;;5099269;28;20046;-88
2022/10/06 11:05:44;;;;;;;12.93;1.85;;;15.80;99.90;;;;;;5099089;28;20049;-88
2022/10/06 11:08:23;;;;;;;6.57;1.65;;;15.90;99.90;;;;;;5115906;28;20039;-87
2022/10/06 11:11:01;;;;;;;10.85;1.50;;;15.90;99.90;;;;;;5117060;28;20365;-86
2022/10/06 11:13:47;;;;;;;5.57;1.40;;;15.80;99.90;;;;;;5099034;28;20039;-84
2022/10/06 11:16:40;;;;;;;7.78;1.65;;;16.00;99.90;;;;;;5116703;28;20127;-88
2022/10/06 11:19:38;;;;;;;5.93;1.67;;;15.80;99.90;;;;;;5115653;28;20058;-88
2022/10/06 11:22:24;;;;;;;10.93;2.00;;;15.90;99.90;;;;;;5100409;28;20044;-86
2022/10/06 11:25:01;;;;;;;6.30;1.55;;;15.90;99.90;;;;;;5098386;28;20134;-90
2022/10/06 11:27:44;;;;;;;5.75;1.45;;;16.00;99.90;;;;;;5098313;28;20043;-83
2022/10/06 11:30:18;;;;;;;2.30;1.05;;;15.90;99.90;;;;;;5098272;28;20403;-87
2022/10/06 11:33:00;;;;;;;8.48;1.77;;;16.00;99.90;;;;;;5097991;28;20052;-87
2022/10/06 11:35:33;;;;;;;7.43;1.80;;;16.20;99.90;;;;;;5115735;28;20047;-88
2022/10/06 11:38:07;;;;;;;3.80;1.20;;;16.10;99.90;;;;;;5098633;28;20035;-84
2022/10/06 11:40:47;;;;;;;4.45;1.45;;;16.10;99.90;;;;;;5115015;28;20079;-86
2022/10/06 11:43:41;;;;;;;9.02;1.40;;;16.00;99.90;;;;;;5114750;28;20062;-83
2022/10/06 11:46:32;;;;;;;4.43;1.07;;;16.20;99.90;;;;;;5098797;28;20079;-81
2022/10/06 11:49:28;;;;;;;4.57;1.58;;;15.90;99.90;;;;;;5097470;28;20042;-82
2022/10/06 11:52:06;;;;;;;4.60;1.23;;;16.20;99.90;;;;;;5114449;28;20061;-83
2022/10/06 11:54:47;;;;;;;5.35;1.48;;;16.20;99.90;;;;;;5114530;28;20130;-81
2022/10/06 11:57:22;;;;;;;12.25;1.80;;;16.20;99.90;;;;;;5097434;28;20043;-84
2022/10/06 12:00:08;;;;;;;8.57;1.38;;;16.30;99.90;;;;;;5097415;28;20044;-82
2022/10/06 12:02:36;;;;;;;8.68;1.90;;;16.50;99.90;;;;;;5039690;28;20059;-85
2022/10/06 12:05:14;;;;;;;2.17;1.20;;;16.00;99.90;;;;;;5039608;28;20060;-82
2022/10/06 12:07:52;;;;;;;4.93;1.52;;;;;;;;;;5039450;28;20056;-82
2022/10/06 12:10:26;;;;;;;7.85;1.60;;;16.20;99.90;;;;;;5039919;28;20052;-83
2022/10/06 12:13:08;;;;;;;7.13;1.70;;;;;;;;;;5039113;28;20044;-81
2022/10/06 12:15:41;;;;;;;6.78;1.35;;;16.40;99.90;;;;;;5039344;28;20622;-83
2022/10/06 12:18:09;;;;;;;;;;;16.40;99.90;;;;;;5056370;28;20048;-83
2022/10/06 12:21:05;;;;;;;5.95;2.22;;;16.60;99.90;;;;;;5056011;28;19971;-81
2022/10/06 12:23:59;;;;;;;8.52;1.60;;;16.60;99.90;;;;;;5056896;28;20048;-82
2022/10/06 12:26:38;;;;;;;7.53;1.77;;;16.60;99.90;;;;;;5055718;28;20536;-82
2022/10/06 12:29:45;;;;;;;7.20;2.00;;;16.70;99.90;;;;;;5055572;28;20421;-84
2022/10/06 12:32:29;;;;;;;4.18;1.40;;;16.80;99.90;;;;;;4957709;28;20157;-86
2022/10/06 12:35:02;;;;;;;5.82;1.55;;;16.60;99.90;;;;;;4941946;28;20127;-83
2022/10/06 12:37:27;;;;;;;5.88;1.10;;;16.80;99.90;;;;;;4941593;28;20046;-87
2022/10/06 12:40:33;;;;;;;5.20;1.42;;;16.70;99.90;;;;;;4992729;28;20049;-89
2022/10/06 12:43:16;;;;;;;3.47;1.42;;;16.80;99.90;;;;;;4998251;28;20053;-86
2022/10/06 12:46:10;;;;;;;5.13;1.43;;;16.90;99.90;;;;;;5016115;28;20045;-85
2022/10/06 12:48:45;;;;;;;3.92;0.75;;;16.90;99.90;;;;;;5015804;28;20055;-90
2022/10/06 12:51:25;;;;;;;5.10;1.60;;;17.00;99.90;;;;;;4999634;28;20045;-87
2022/10/06 12:54:02;;;;;;;9.25;1.83;;;16.80;99.90;;;;;;5000234;28;20507;-90
2022/10/06 12:56:31;;;;;;;5.70;1.85;;;16.90;99.90;;;;;;5016184;28;20095;-88
2022/10/06 12:58:57;;;;;;;8.50;1.42;;;16.90;99.90;;;;;;5015524;28;20451;-83
2022/10/06 13:01:25;;;;;;;3.85;1.52;;;16.90;99.90;;;;;;5015478;28;20083;-90
2022/10/06 13:03:52;;;;;;;4.90;1.60;;;16.80;99.90;;;;;;5103526;28;20054;-89
2022/10/06 13:06:23;;;;;;;7.72;1.40;;;16.80;99.90;;;;;;5113417;28;20050;-90
2022/10/06 13:09:21;;;;;;;8.10;1.85;;;16.90;99.90;;;;;;5096710;28;20044;-87
2022/10/06 13:11:48;;;;;;;7.45;1.40;;;;;;;;;;5055697;28;20068;-85
2022/10/06 13:14:14;;;;;;;4.72;1.80;;;;;;;;;;5039088;28;20151;-89
2022/10/06 13:16:43;;;;;;;6.03;1.30;;;17.10;99.90;;;;;;5038895;28;20051;-87
2022/10/06 13:19:21;;;;;;;5.25;1.42;;;16.90;99.90;;;;;;5038151;28;20052;-88
2022/10/06 13:21:47;;;;;;;2.72;1.20;;;;;;;;;;5038498;28;20086;-88
2022/10/06 13:24:18;;;;;;;5.30;1.30;;;17.00;99.90;;;;;;5038644;28;20482;-89
2022/10/06 13:26:44;;;;;;;4.35;2.08;;;17.00;99.90;;;;;;5054946;28;20059;-85
2022/10/06 13:29:23;;;;;;;7.30;1.52;;;16.90;99.90;;;;;;5038703;28;20049;-86
2022/10/06 13:31:52;;;;;;;7.65;1.52;;;17.10;99.90;;;;;;5054715;28;20050;-89
2022/10/06 13:34:24;;;;;;;9.35;1.88;;;;;;;;;;5055179;28;20055;-88
2022/10/06 13:36:51;;;;;;;13.15;1.48;;;16.90;99.90;;;;;;5055280;28;20052;-88
2022/10/06 13:39:18;;;;;;;5.63;1.52;;;16.90;99.90;;;;;;5038271;28;20052;-86
2022/10/06 13:41:44;;;;;;;3.30;1.08;;;;;;;;;;5038357;28;20516;-83
2022/10/06 13:44:10;;;;;;;10.13;2.17;;;;;;;;;;5054706;28;20127;-89
2022/10/06 13:46:43;;;;;;;4.53;1.90;;;16.60;99.90;;;;;;5063351;28;20062;-85
2022/10/06 13:49:28;;;;;;;10.93;2.00;;;17.10;99.90;;;;;;5095922;28;20135;-86
2022/10/06 13:52:00;;;;;;;6.78;2.47;;;17.00;99.90;;;;;;5095651;28;20044;-87
2022/10/06 13:54:28;;;;;;;4.88;1.60;;;;;;;;;;5096390;28;20047;-83
2022/10/06 13:56:54;;;;;;;12.40;1.77;;;;;;;;;;5112681;28;20483;-86
2022/10/06 13:59:36;;;;;;;7.25;1.45;;;16.90;99.90;;;;;;5112822;28;20090;-86
2022/10/06 14:02:17;;;;;;;7.85;1.67;;;17.00;99.90;;;;;;5112001;28;20062;-87